createdAt,value
2019-01-05T00:00:19.097Z,1.71
2019-01-05T00:03:13.245Z,1.77
2019-01-05T00:05:58.069Z,1.72
2019-01-05T00:08:44.282Z,1.72
2019-01-05T00:11:32.736Z,1.76
2019-01-05T00:14:27.762Z,1.77
2019-01-05T00:17:16.337Z,1.74
2019-01-05T00:20:28.473Z,1.79
2019-01-05T00:23:19.525Z,1.86
2019-01-05T00:26:13.272Z,1.86
2019-01-05T00:29:02.956Z,1.96
2019-01-05T00:32:00.383Z,1.87
2019-01-05T00:34:53.606Z,1.90
2019-01-05T00:37:41.155Z,1.91
2019-01-05T00:40:28.453Z,1.91
2019-01-05T00:43:07.628Z,1.90
2019-01-05T00:46:07.236Z,1.84
2019-01-05T00:48:55.507Z,1.84
2019-01-05T00:51:44.677Z,1.91
2019-01-05T00:54:32.443Z,1.95
2019-01-05T00:57:29.998Z,1.94
2019-01-05T01:00:19.664Z,1.99
2019-01-05T01:03:13.462Z,1.91
2019-01-05T01:05:54.161Z,1.94
2019-01-05T01:08:49.698Z,1.97
2019-01-05T01:11:40.886Z,1.95
2019-01-05T01:14:27.918Z,1.94
2019-01-05T01:17:14.847Z,1.99
2019-01-05T01:20:21.100Z,2.00
2019-01-05T01:23:09.612Z,2.05
2019-01-05T01:26:01.670Z,2.03
2019-01-05T01:28:48.720Z,2.03
2019-01-05T01:31:42.949Z,2.08
2019-01-05T01:34:40.390Z,2.10
2019-01-05T01:37:28.476Z,2.05
2019-01-05T01:40:22.498Z,2.07
2019-01-05T01:43:09.222Z,2.04
2019-01-05T01:45:55.670Z,2.06
2019-01-05T01:48:43.786Z,2.02
2019-01-05T01:51:31.674Z,2.01
2019-01-05T01:54:18.102Z,2.12
2019-01-05T01:57:04.593Z,2.07
2019-01-05T02:00:26.528Z,2.07
2019-01-05T02:03:19.267Z,2.06
2019-01-05T02:06:14.279Z,2.13
2019-01-05T02:09:14.547Z,2.13
2019-01-05T02:12:05.127Z,2.13
2019-01-05T02:14:53.961Z,2.06
2019-01-05T02:17:54.702Z,2.13
2019-01-05T02:21:12.665Z,2.04
2019-01-05T02:24:25.893Z,2.02
2019-01-05T02:28:00.049Z,2.13
2019-01-05T02:31:05.720Z,2.10
2019-01-05T02:34:39.463Z,2.06
2019-01-05T02:37:58.884Z,2.13
2019-01-05T02:41:11.975Z,2.02
2019-01-05T02:44:40.432Z,2.04
2019-01-05T02:48:22.432Z,1.97
2019-01-05T02:51:45.999Z,1.93
2019-01-05T02:55:03.041Z,1.89
2019-01-05T02:58:33.888Z,1.87
2019-01-05T03:02:13.721Z,1.80
2019-01-05T03:05:33.788Z,1.84
2019-01-05T03:08:53.176Z,1.76
2019-01-05T03:12:29.542Z,1.71
2019-01-05T03:16:01.021Z,1.71
2019-01-05T03:19:42.926Z,1.63
2019-01-05T03:23:14.793Z,1.69
2019-01-05T03:27:06.875Z,1.68
2019-01-05T03:30:59.038Z,1.67
2019-01-05T03:34:14.846Z,1.62
2019-01-05T03:37:37.730Z,1.62
2019-01-05T03:41:19.375Z,1.63
2019-01-05T03:44:47.049Z,1.66
2019-01-05T03:48:24.509Z,1.64
2019-01-05T03:51:34.988Z,1.63
2019-01-05T03:55:14.118Z,1.65
2019-01-05T03:58:49.653Z,1.70
2019-01-05T04:02:19.921Z,1.69
2019-01-05T04:05:32.845Z,1.62
2019-01-05T04:08:47.580Z,1.62
2019-01-05T04:12:24.103Z,1.55
2019-01-05T04:15:49.779Z,1.47
2019-01-05T04:19:20.420Z,1.45
2019-01-05T04:23:16.696Z,1.40
2019-01-05T04:26:57.021Z,1.43
2019-01-05T04:30:04.465Z,1.43
2019-01-05T04:33:45.852Z,1.43
2019-01-05T04:36:41.408Z,1.36
2019-01-05T04:39:57.352Z,1.37
2019-01-05T04:43:21.994Z,1.35
2019-01-05T04:47:11.294Z,1.33
2019-01-05T04:50:40.107Z,1.27
2019-01-05T04:54:29.306Z,1.21
2019-01-05T04:57:52.635Z,1.19
2019-01-05T05:01:31.103Z,1.16
2019-01-05T05:04:48.690Z,1.13
2019-01-05T05:08:37.955Z,0.96
2019-01-05T05:11:50.685Z,1.02
2019-01-05T05:15:25.391Z,1.00
2019-01-05T05:18:57.644Z,0.98
2019-01-05T05:22:19.320Z,1.04
2019-01-05T05:25:46.837Z,1.01
2019-01-05T05:29:19.789Z,0.98
2019-01-05T05:32:50.205Z,1.03
2019-01-05T05:36:07.283Z,1.07
2019-01-05T05:39:31.677Z,1.10
2019-01-05T05:42:59.344Z,1.12
2019-01-05T05:46:11.675Z,1.09
2019-01-05T05:49:39.611Z,1.15
2019-01-05T05:53:10.326Z,1.07
2019-01-05T05:56:22.349Z,1.07
2019-01-05T06:00:12.372Z,1.03
2019-01-05T06:03:40.573Z,1.02
2019-01-05T06:07:33.945Z,1.00
2019-01-05T06:11:18.012Z,1.02
2019-01-05T06:14:34.122Z,0.99
2019-01-05T06:18:14.320Z,0.91
2019-01-05T06:22:06.807Z,0.95
2019-01-05T06:25:33.751Z,1.04
2019-01-05T06:29:22.001Z,0.99
2019-01-05T06:32:46.629Z,1.00
2019-01-05T06:36:30.937Z,1.00
2019-01-05T06:39:52.877Z,0.95
2019-01-05T06:43:18.909Z,0.99
2019-01-05T06:46:57.653Z,0.93
2019-01-05T06:50:37.414Z,0.94
2019-01-05T06:54:01.920Z,1.02
2019-01-05T06:57:32.333Z,0.99
2019-01-05T07:01:06.001Z,1.04
2019-01-05T07:04:35.539Z,1.04
2019-01-05T07:08:06.820Z,1.01
2019-01-05T07:11:33.862Z,0.99
2019-01-05T07:14:58.676Z,0.97
2019-01-05T07:18:21.894Z,0.92
2019-01-05T07:21:45.180Z,0.98
2019-01-05T07:24:50.508Z,0.90
2019-01-05T07:28:39.594Z,0.88
2019-01-05T07:31:49.363Z,0.87
2019-01-05T07:34:59.747Z,0.90
2019-01-05T07:38:21.397Z,0.94
2019-01-05T07:42:11.011Z,0.94
2019-01-05T07:45:33.194Z,0.98
2019-01-05T07:49:09.634Z,1.10
2019-01-05T07:52:34.168Z,1.10
2019-01-05T07:56:04.463Z,1.15
2019-01-05T07:59:21.965Z,1.19
2019-01-05T08:02:38.570Z,1.19
2019-01-05T08:06:16.012Z,1.16
2019-01-05T08:09:46.129Z,1.24
2019-01-05T08:13:12.560Z,1.22
2019-01-05T08:16:50.834Z,1.16
2019-01-05T08:20:37.167Z,1.15
2019-01-05T08:24:16.808Z,1.21
2019-01-05T08:28:13.074Z,1.15
2019-01-05T08:31:35.703Z,1.10
2019-01-05T08:35:00.211Z,1.18
2019-01-05T08:38:30.072Z,1.15
2019-01-05T08:41:56.677Z,1.12
2019-01-05T08:45:43.479Z,1.16
2019-01-05T08:49:19.804Z,1.15
2019-01-05T08:52:16.503Z,1.13
2019-01-05T08:56:04.958Z,1.19
2019-01-05T09:00:13.633Z,1.20
2019-01-05T09:03:26.727Z,1.19
2019-01-05T09:07:08.284Z,1.17
2019-01-05T09:11:01.377Z,1.23
2019-01-05T09:14:28.113Z,1.26
2019-01-05T09:18:13.740Z,1.30
2019-01-05T09:22:02.730Z,1.35
2019-01-05T09:25:26.558Z,1.41
2019-01-05T09:28:32.378Z,1.47
2019-01-05T09:32:11.532Z,1.44
2019-01-05T09:35:47.034Z,1.47
2019-01-05T09:39:12.041Z,1.52
2019-01-05T09:42:38.209Z,1.66
2019-01-05T09:46:20.634Z,1.63
2019-01-05T09:49:44.810Z,1.67
2019-01-05T09:53:22.836Z,1.74
2019-01-05T09:57:01.533Z,1.76
2019-01-05T10:00:31.667Z,1.79
2019-01-05T10:03:58.584Z,1.84
2019-01-05T10:07:21.282Z,1.87
2019-01-05T10:11:01.383Z,1.88
2019-01-05T10:14:18.789Z,1.83
2019-01-05T10:18:14.010Z,1.84
2019-01-05T10:21:44.701Z,1.93
2019-01-05T10:25:11.197Z,1.89
2019-01-05T10:28:47.325Z,1.92
2019-01-05T10:32:11.743Z,1.95
2019-01-05T10:35:51.745Z,1.93
2019-01-05T10:39:21.996Z,1.91
2019-01-05T10:42:42.289Z,1.98
2019-01-05T10:46:11.207Z,2.11
2019-01-05T10:49:42.149Z,2.04
2019-01-05T10:52:45.880Z,2.10
2019-01-05T10:56:21.621Z,2.07
2019-01-05T10:59:57.635Z,2.10
2019-01-05T11:03:27.979Z,2.12
2019-01-05T11:07:03.122Z,2.15
2019-01-05T11:11:02.768Z,2.16
2019-01-05T11:14:23.383Z,2.18
2019-01-05T11:17:35.273Z,2.21
2019-01-05T11:20:54.185Z,2.21
2019-01-05T11:24:13.182Z,2.21
2019-01-05T11:27:35.954Z,2.26
2019-01-05T11:31:12.088Z,2.30
2019-01-05T11:34:59.617Z,2.29
2019-01-05T11:38:33.297Z,2.27
2019-01-05T11:42:07.483Z,2.30
2019-01-05T11:45:27.975Z,2.34
2019-01-05T11:48:35.064Z,2.36
2019-01-05T11:52:25.894Z,2.28
2019-01-05T11:55:58.345Z,2.29
2019-01-05T11:59:38.589Z,2.23
2019-01-05T12:03:16.030Z,2.24
2019-01-05T12:06:43.132Z,2.25
2019-01-05T12:10:11.464Z,2.33
2019-01-05T12:13:31.188Z,2.38
2019-01-05T12:16:55.776Z,2.36
2019-01-05T12:20:37.187Z,2.34
2019-01-05T12:24:15.249Z,2.49
2019-01-05T12:27:40.826Z,2.49
2019-01-05T12:30:54.272Z,2.47
2019-01-05T12:34:11.218Z,2.47
2019-01-05T12:37:30.816Z,2.44
2019-01-05T12:40:57.603Z,2.48
2019-01-05T12:44:31.368Z,2.50
2019-01-05T12:48:13.903Z,2.53
2019-01-05T12:51:37.761Z,2.58
2019-01-05T12:54:54.781Z,2.58
2019-01-05T12:58:21.128Z,2.65
2019-01-05T13:01:49.599Z,2.70
2019-01-05T13:05:06.985Z,2.75
2019-01-05T13:08:26.888Z,2.76
2019-01-05T13:11:52.364Z,2.84
2019-01-05T13:15:34.236Z,2.91
2019-01-05T13:19:20.250Z,2.93
2019-01-05T13:22:41.282Z,2.91
2019-01-05T13:26:08.760Z,2.97
2019-01-05T13:29:21.979Z,2.93
2019-01-05T13:32:58.247Z,2.94
2019-01-05T13:36:38.053Z,2.89
2019-01-05T13:40:06.594Z,2.89
2019-01-05T13:43:39.584Z,2.84
2019-01-05T13:47:18.601Z,2.86
2019-01-05T13:50:30.758Z,2.86
2019-01-05T13:53:58.858Z,2.87
2019-01-05T13:56:58.310Z,2.96
2019-01-05T13:59:52.358Z,2.98
2019-01-05T14:02:39.982Z,2.99
2019-01-05T14:05:26.590Z,2.97
2019-01-05T14:08:13.273Z,3.00
2019-01-05T14:11:02.015Z,3.09
2019-01-05T14:13:48.773Z,3.10
2019-01-05T14:16:35.477Z,3.11
2019-01-05T14:19:23.375Z,3.09
2019-01-05T14:22:11.617Z,3.16
2019-01-05T14:25:01.046Z,3.15
2019-01-05T14:27:49.030Z,3.21
2019-01-05T14:30:39.854Z,3.16
2019-01-05T14:33:26.501Z,3.24
2019-01-05T14:36:15.100Z,3.24
2019-01-05T14:39:15.770Z,3.26
2019-01-05T14:41:59.913Z,3.32
2019-01-05T14:44:57.136Z,3.33
2019-01-05T14:47:44.118Z,3.39
2019-01-05T14:50:30.751Z,3.41
2019-01-05T14:53:17.253Z,3.41
2019-01-05T14:56:00.979Z,3.43
2019-01-05T14:58:47.494Z,3.44
2019-01-05T15:01:48.428Z,3.42
2019-01-05T15:04:48.666Z,3.41
2019-01-05T15:07:25.520Z,3.44
2019-01-05T15:10:16.533Z,3.44
2019-01-05T15:12:56.026Z,3.49
2019-01-05T15:15:49.883Z,3.50
2019-01-05T15:18:34.872Z,3.47
2019-01-05T15:21:15.200Z,3.48
2019-01-05T15:24:01.727Z,3.45
2019-01-05T15:26:48.285Z,3.50
2019-01-05T15:29:36.222Z,3.53
2019-01-05T15:32:39.252Z,3.48
2019-01-05T15:35:30.025Z,3.48
2019-01-05T15:38:18.704Z,3.48
2019-01-05T15:41:06.553Z,3.49
2019-01-05T15:44:00.570Z,3.48
2019-01-05T15:46:57.481Z,3.51
2019-01-05T15:49:44.329Z,3.50
2019-01-05T15:52:26.750Z,3.45
2019-01-05T15:55:11.960Z,3.43
2019-01-05T15:58:08.937Z,3.40
2019-01-05T16:00:55.549Z,3.39
2019-01-05T16:03:43.569Z,3.42
2019-01-05T16:06:43.596Z,3.43
2019-01-05T16:09:34.431Z,3.39
2019-01-05T16:12:21.258Z,3.43
2019-01-05T16:15:04.295Z,3.44
2019-01-05T16:17:50.764Z,3.46
2019-01-05T16:20:37.331Z,3.47
2019-01-05T16:23:24.156Z,3.46
2019-01-05T16:26:12.521Z,3.47
2019-01-05T16:29:02.909Z,3.47
2019-01-05T16:31:50.821Z,3.47
2019-01-05T16:34:37.205Z,3.47
2019-01-05T16:37:23.770Z,3.53
2019-01-05T16:40:18.713Z,3.49
2019-01-05T16:43:11.276Z,3.47
2019-01-05T16:45:54.831Z,3.46
2019-01-05T16:48:41.332Z,3.50
2019-01-05T16:51:28.132Z,3.56
2019-01-05T16:54:15.182Z,3.58
2019-01-05T16:57:01.962Z,3.60
2019-01-05T17:00:08.329Z,3.59
2019-01-05T17:02:54.866Z,3.58
2019-01-05T17:05:41.783Z,3.67
2019-01-05T17:08:28.388Z,3.68
2019-01-05T17:11:16.216Z,3.69
2019-01-05T17:14:19.540Z,3.68
2019-01-05T17:17:16.682Z,3.76
2019-01-05T17:19:54.451Z,3.72
2019-01-05T17:22:41.500Z,3.73
2019-01-05T17:25:44.421Z,3.78
2019-01-05T17:28:45.425Z,3.76
2019-01-05T17:31:31.913Z,3.72
2019-01-05T17:34:19.833Z,3.81
2019-01-05T17:37:06.363Z,3.81
2019-01-05T17:39:53.267Z,3.89
2019-01-05T17:42:53.352Z,3.87
2019-01-05T17:45:34.646Z,3.86
2019-01-05T17:48:31.914Z,3.84
2019-01-05T17:51:20.991Z,3.81
2019-01-05T17:54:07.995Z,3.85
2019-01-05T17:56:53.198Z,3.84
2019-01-05T17:59:34.077Z,3.87
2019-01-05T18:02:21.893Z,3.90
2019-01-05T18:05:12.429Z,3.90
2019-01-05T18:08:03.501Z,3.95
2019-01-05T18:11:00.271Z,3.94
2019-01-05T18:13:48.124Z,3.95
2019-01-05T18:16:46.979Z,3.93
2019-01-05T18:19:28.677Z,3.98
2019-01-05T18:22:15.407Z,3.96
2019-01-05T18:25:09.471Z,4.06
2019-01-05T18:28:06.346Z,4.06
2019-01-05T18:30:49.658Z,4.07
2019-01-05T18:33:28.345Z,4.06
2019-01-05T18:36:09.316Z,4.08
2019-01-05T18:39:03.445Z,4.09
2019-01-05T18:41:51.032Z,4.07
2019-01-05T18:44:32.288Z,4.03
2019-01-05T18:47:18.770Z,4.06
2019-01-05T18:49:59.744Z,4.12
2019-01-05T18:52:51.186Z,4.11
2019-01-05T18:55:36.890Z,4.12
2019-01-05T18:58:39.798Z,4.14
2019-01-05T19:01:26.584Z,4.13
2019-01-05T19:04:26.846Z,4.15
2019-01-05T19:07:13.563Z,4.13
2019-01-05T19:09:52.863Z,4.15
2019-01-05T19:12:37.286Z,4.18
2019-01-05T19:15:37.603Z,4.18
2019-01-05T19:18:20.106Z,4.22
2019-01-05T19:21:07.882Z,4.18
2019-01-05T19:23:58.308Z,4.20
2019-01-05T19:26:48.957Z,4.18
2019-01-05T19:29:45.775Z,4.19
2019-01-05T19:32:36.771Z,4.21
2019-01-05T19:35:19.980Z,4.17
2019-01-05T19:38:07.943Z,4.25
2019-01-05T19:40:54.683Z,4.19
2019-01-05T19:43:41.104Z,4.23
2019-01-05T19:46:42.806Z,4.19
2019-01-05T19:49:25.127Z,4.17
2019-01-05T19:52:25.031Z,4.14
2019-01-05T19:55:11.478Z,4.16
2019-01-05T19:57:58.245Z,4.15
2019-01-05T20:00:58.201Z,4.18
2019-01-05T20:03:49.202Z,4.14
2019-01-05T20:06:49.492Z,4.12
2019-01-05T20:09:36.172Z,4.09
2019-01-05T20:12:36.481Z,4.14
2019-01-05T20:15:27.944Z,4.04
2019-01-05T20:18:18.580Z,4.04
2019-01-05T20:21:14.777Z,4.10
2019-01-05T20:24:11.706Z,4.07
2019-01-05T20:26:58.499Z,4.10
2019-01-05T20:29:58.660Z,4.06
2019-01-05T20:32:42.928Z,4.06
2019-01-05T20:35:29.622Z,4.09
2019-01-05T20:38:16.142Z,4.11
2019-01-05T20:41:20.816Z,4.12
2019-01-05T20:44:08.623Z,4.14
2019-01-05T20:46:59.223Z,4.11
2019-01-05T20:49:59.346Z,4.11
2019-01-05T20:52:45.926Z,4.07
2019-01-05T20:55:48.913Z,4.11
2019-01-05T20:58:35.466Z,4.12
2019-01-05T21:01:27.658Z,4.10
2019-01-05T21:04:14.601Z,4.10
2019-01-05T21:07:08.469Z,4.12
2019-01-05T21:09:59.025Z,4.10
2019-01-05T21:12:52.105Z,4.09
2019-01-05T21:15:38.959Z,4.11
2019-01-05T21:18:39.897Z,4.11
2019-01-05T21:21:23.020Z,4.08
2019-01-05T21:24:16.633Z,4.11
2019-01-05T21:27:03.077Z,4.10
2019-01-05T21:29:50.857Z,4.12
2019-01-05T21:32:36.587Z,4.10
2019-01-05T21:35:18.462Z,4.08
2019-01-05T21:38:05.132Z,4.10
2019-01-05T21:40:51.518Z,4.09
2019-01-05T21:43:32.299Z,4.10
2019-01-05T21:46:15.948Z,4.10
2019-01-05T21:49:03.774Z,4.10
2019-01-05T21:51:50.288Z,4.12
2019-01-05T21:54:56.413Z,4.14
2019-01-05T21:58:02.784Z,4.15
2019-01-05T22:02:56.388Z,4.15
2019-01-05T22:05:43.136Z,4.10
2019-01-05T22:08:30.097Z,4.12
2019-01-05T22:11:29.190Z,4.12
2019-01-05T22:14:15.714Z,4.14
2019-01-05T22:17:02.268Z,4.17
2019-01-05T22:20:08.249Z,4.13
2019-01-05T22:22:54.535Z,4.14
2019-01-05T22:25:42.416Z,4.15
2019-01-05T22:28:49.176Z,4.16
2019-01-05T22:31:42.436Z,4.15
2019-01-05T22:34:29.635Z,4.14
2019-01-05T22:37:22.164Z,4.13
2019-01-05T22:40:09.987Z,4.12
2019-01-05T22:43:10.877Z,4.13
2019-01-05T22:45:58.760Z,4.09
2019-01-05T22:48:55.675Z,4.10
2019-01-05T22:51:42.201Z,4.06
2019-01-05T22:54:28.669Z,4.06
2019-01-05T22:57:15.466Z,4.07
2019-01-05T23:00:20.815Z,4.10
2019-01-05T23:03:12.654Z,4.11
2019-01-05T23:05:58.542Z,4.10
2019-01-05T23:08:45.196Z,4.09
2019-01-05T23:11:33.324Z,4.08
2019-01-05T23:14:19.026Z,4.05
2019-01-05T23:17:12.781Z,4.05
2019-01-05T23:20:00.614Z,4.05
2019-01-05T23:22:51.630Z,4.06
2019-01-05T23:25:31.447Z,4.03
2019-01-05T23:28:14.382Z,4.03
2019-01-05T23:31:01.425Z,4.02
2019-01-05T23:33:45.679Z,4.02
2019-01-05T23:36:36.875Z,3.99
2019-01-05T23:39:24.396Z,3.95
2019-01-05T23:42:11.114Z,4.00
2019-01-05T23:45:02.030Z,4.00
2019-01-05T23:47:49.933Z,3.94
2019-01-05T23:50:32.565Z,3.95
2019-01-05T23:53:14.969Z,3.94
2019-01-05T23:56:06.351Z,3.95
2019-01-05T23:59:01.753Z,3.93
